Gilman City, Missouri
Current Conditions -  °F | °C
As of 10:53 AM on Monday 22 Dec 2014 (Local Time) from KLWD Reporting Station
Light Rain Light Rain  
Wind Chill: 33°   Ceiling: 500
Heat Index: 40°   Visibility: 4mi
Dew Point: 38°   Wind: 13mph
Humidity: 93%   Direction: 140°SE
Pressure: 29.56"   Gusts: NA
Location:  40.14°N, 93.87°W
Report Text: KLWD 221653Z AUTO 14011KT 4SM -RA BR OVC005 04/03 A2956 RMK AO2 SLP017 P0002 T00440033
Loading
Personal Weather Stations






























Interactive Weather Map New forecast layout! Learn more

10-Day Weather Forecast

Advertisements
Track Severe Weather on mobile